sensor_id;sensor_type;location;lat;lon;timestamp;P1;durP1;ratioP1;P2;durP2;ratioP2
13568;SDS011;6856;51.460;7.158;2023-03-31T00:02:15;4.40;;;1.47;;
13568;SDS011;6856;51.460;7.158;2023-03-31T00:04:54;3.93;;;1.37;;
13568;SDS011;6856;51.460;7.158;2023-03-31T00:07:30;4.47;;;1.30;;
13568;SDS011;6856;51.460;7.158;2023-03-31T00:10:05;3.53;;;1.30;;
13568;SDS011;6856;51.460;7.158;2023-03-31T00:12:46;4.57;;;1.20;;
13568;SDS011;6856;51.460;7.158;2023-03-31T00:15:21;4.03;;;1.30;;
13568;SDS011;6856;51.460;7.158;2023-03-31T00:17:54;3.70;;;1.10;;
13568;SDS011;6856;51.460;7.158;2023-03-31T00:20:32;3.53;;;1.67;;
13568;SDS011;6856;51.460;7.158;2023-03-31T00:23:08;4.27;;;1.07;;
13568;SDS011;6856;51.460;7.158;2023-03-31T00:25:45;3.03;;;1.13;;
13568;SDS011;6856;51.460;7.158;2023-03-31T00:28:19;3.43;;;1.10;;
13568;SDS011;6856;51.460;7.158;2023-03-31T00:30:58;2.60;;;1.07;;
13568;SDS011;6856;51.460;7.158;2023-03-31T00:33:33;2.20;;;1.10;;
13568;SDS011;6856;51.460;7.158;2023-03-31T00:36:09;3.00;;;1.07;;
13568;SDS011;6856;51.460;7.158;2023-03-31T00:38:43;2.87;;;1.10;;
13568;SDS011;6856;51.460;7.158;2023-03-31T00:41:17;3.97;;;1.20;;
13568;SDS011;6856;51.460;7.158;2023-03-31T00:44:01;3.13;;;1.33;;
13568;SDS011;6856;51.460;7.158;2023-03-31T00:46:45;3.47;;;1.40;;
13568;SDS011;6856;51.460;7.158;2023-03-31T00:49:27;3.47;;;1.20;;
13568;SDS011;6856;51.460;7.158;2023-03-31T00:52:08;4.60;;;1.40;;
13568;SDS011;6856;51.460;7.158;2023-03-31T00:54:48;3.70;;;1.20;;
13568;SDS011;6856;51.460;7.158;2023-03-31T00:57:26;3.90;;;1.13;;
13568;SDS011;6856;51.460;7.158;2023-03-31T01:00:04;1.80;;;1.00;;
13568;SDS011;6856;51.460;7.158;2023-03-31T01:02:45;2.83;;;0.90;;
13568;SDS011;6856;51.460;7.158;2023-03-31T01:05:24;2.87;;;1.20;;
13568;SDS011;6856;51.460;7.158;2023-03-31T01:08:05;5.30;;;1.37;;
13568;SDS011;6856;51.460;7.158;2023-03-31T01:10:40;2.43;;;1.10;;
13568;SDS011;6856;51.460;7.158;2023-03-31T01:13:21;3.33;;;1.27;;
13568;SDS011;6856;51.460;7.158;2023-03-31T01:15:56;3.57;;;1.13;;
13568;SDS011;6856;51.460;7.158;2023-03-31T01:18:30;3.60;;;1.17;;
13568;SDS011;6856;51.460;7.158;2023-03-31T01:21:20;2.40;;;1.13;;
13568;SDS011;6856;51.460;7.158;2023-03-31T01:27:45;4.40;;;1.20;;
13568;SDS011;6856;51.460;7.158;2023-03-31T01:33:59;2.37;;;0.90;;
13568;SDS011;6856;51.460;7.158;2023-03-31T01:37:14;1.60;;;0.70;;
13568;SDS011;6856;51.460;7.158;2023-03-31T01:40:45;6.23;;;1.43;;
13568;SDS011;6856;51.460;7.158;2023-03-31T01:43:54;3.20;;;1.00;;
13568;SDS011;6856;51.460;7.158;2023-03-31T01:46:40;2.17;;;1.13;;
13568;SDS011;6856;51.460;7.158;2023-03-31T01:49:24;3.10;;;1.07;;
13568;SDS011;6856;51.460;7.158;2023-03-31T01:52:07;1.97;;;1.10;;
13568;SDS011;6856;51.460;7.158;2023-03-31T01:54:52;3.93;;;1.60;;
13568;SDS011;6856;51.460;7.158;2023-03-31T01:57:38;3.33;;;1.23;;
13568;SDS011;6856;51.460;7.158;2023-03-31T02:00:20;2.30;;;0.90;;
13568;SDS011;6856;51.460;7.158;2023-03-31T02:03:04;3.57;;;1.37;;
13568;SDS011;6856;51.460;7.158;2023-03-31T02:05:45;2.60;;;1.40;;
13568;SDS011;6856;51.460;7.158;2023-03-31T02:08:25;2.60;;;1.17;;
13568;SDS011;6856;51.460;7.158;2023-03-31T02:11:03;2.63;;;1.13;;
13568;SDS011;6856;51.460;7.158;2023-03-31T02:13:39;1.80;;;0.90;;
13568;SDS011;6856;51.460;7.158;2023-03-31T02:16:20;4.17;;;1.30;;
13568;SDS011;6856;51.460;7.158;2023-03-31T02:18:58;2.63;;;1.17;;
13568;SDS011;6856;51.460;7.158;2023-03-31T02:21:36;3.97;;;1.33;;
13568;SDS011;6856;51.460;7.158;2023-03-31T02:24:12;2.83;;;1.17;;
13568;SDS011;6856;51.460;7.158;2023-03-31T02:26:49;3.80;;;1.23;;
13568;SDS011;6856;51.460;7.158;2023-03-31T02:29:33;5.50;;;1.43;;
13568;SDS011;6856;51.460;7.158;2023-03-31T02:32:08;6.23;;;2.27;;
13568;SDS011;6856;51.460;7.158;2023-03-31T02:34:49;4.80;;;1.90;;
13568;SDS011;6856;51.460;7.158;2023-03-31T02:37:23;5.37;;;1.47;;
13568;SDS011;6856;51.460;7.158;2023-03-31T02:40:00;4.70;;;1.73;;
13568;SDS011;6856;51.460;7.158;2023-03-31T02:42:41;5.83;;;1.60;;
13568;SDS011;6856;51.460;7.158;2023-03-31T02:45:49;6.27;;;1.60;;
13568;SDS011;6856;51.460;7.158;2023-03-31T02:48:24;3.77;;;1.60;;
13568;SDS011;6856;51.460;7.158;2023-03-31T02:51:24;5.00;;;1.60;;
13568;SDS011;6856;51.460;7.158;2023-03-31T02:57:57;5.03;;;1.67;;
13568;SDS011;6856;51.460;7.158;2023-03-31T03:01:22;4.07;;;1.53;;
13568;SDS011;6856;51.460;7.158;2023-03-31T03:04:11;6.37;;;1.90;;
13568;SDS011;6856;51.460;7.158;2023-03-31T03:07:06;4.83;;;1.37;;
13568;SDS011;6856;51.460;7.158;2023-03-31T03:09:51;4.40;;;1.53;;
13568;SDS011;6856;51.460;7.158;2023-03-31T03:12:38;4.00;;;1.40;;
13568;SDS011;6856;51.460;7.158;2023-03-31T03:15:21;3.87;;;1.57;;
13568;SDS011;6856;51.460;7.158;2023-03-31T03:18:01;4.30;;;1.37;;
13568;SDS011;6856;51.460;7.158;2023-03-31T03:20:38;4.17;;;1.57;;
13568;SDS011;6856;51.460;7.158;2023-03-31T03:23:19;4.33;;;1.53;;
13568;SDS011;6856;51.460;7.158;2023-03-31T03:25:53;3.30;;;1.40;;
13568;SDS011;6856;51.460;7.158;2023-03-31T03:28:28;3.23;;;1.30;;
13568;SDS011;6856;51.460;7.158;2023-03-31T03:31:01;5.20;;;1.70;;
13568;SDS011;6856;51.460;7.158;2023-03-31T03:33:38;5.27;;;1.70;;
13568;SDS011;6856;51.460;7.158;2023-03-31T03:36:11;4.13;;;1.57;;
13568;SDS011;6856;51.460;7.158;2023-03-31T03:38:45;3.80;;;1.43;;
13568;SDS011;6856;51.460;7.158;2023-03-31T03:41:19;5.03;;;1.40;;
13568;SDS011;6856;51.460;7.158;2023-03-31T03:43:52;5.40;;;1.70;;
13568;SDS011;6856;51.460;7.158;2023-03-31T03:46:26;5.00;;;1.50;;
13568;SDS011;6856;51.460;7.158;2023-03-31T03:49:01;3.63;;;1.53;;
13568;SDS011;6856;51.460;7.158;2023-03-31T03:51:35;3.57;;;1.70;;
13568;SDS011;6856;51.460;7.158;2023-03-31T03:54:08;2.73;;;1.40;;
13568;SDS011;6856;51.460;7.158;2023-03-31T03:56:42;3.10;;;1.33;;
13568;SDS011;6856;51.460;7.158;2023-03-31T03:59:17;5.60;;;1.70;;
13568;SDS011;6856;51.460;7.158;2023-03-31T04:01:51;4.13;;;1.17;;
13568;SDS011;6856;51.460;7.158;2023-03-31T04:04:26;3.73;;;1.40;;
13568;SDS011;6856;51.460;7.158;2023-03-31T04:07:00;3.87;;;1.80;;
13568;SDS011;6856;51.460;7.158;2023-03-31T04:09:33;5.63;;;1.60;;
13568;SDS011;6856;51.460;7.158;2023-03-31T04:12:07;3.50;;;1.60;;
13568;SDS011;6856;51.460;7.158;2023-03-31T04:14:41;3.43;;;1.60;;
13568;SDS011;6856;51.460;7.158;2023-03-31T04:17:14;5.53;;;1.40;;
13568;SDS011;6856;51.460;7.158;2023-03-31T04:19:50;3.97;;;1.40;;
13568;SDS011;6856;51.460;7.158;2023-03-31T04:22:24;2.97;;;1.20;;
13568;SDS011;6856;51.460;7.158;2023-03-31T04:25:00;5.17;;;1.40;;
13568;SDS011;6856;51.460;7.158;2023-03-31T04:27:35;4.90;;;1.93;;
13568;SDS011;6856;51.460;7.158;2023-03-31T04:30:09;3.00;;;1.20;;
13568;SDS011;6856;51.460;7.158;2023-03-31T04:32:44;5.20;;;1.60;;
13568;SDS011;6856;51.460;7.158;2023-03-31T04:35:23;3.77;;;1.40;;
13568;SDS011;6856;51.460;7.158;2023-03-31T04:38:19;5.07;;;1.50;;
13568;SDS011;6856;51.460;7.158;2023-03-31T04:40:57;2.53;;;1.33;;
13568;SDS011;6856;51.460;7.158;2023-03-31T04:43:32;3.50;;;1.37;;
13568;SDS011;6856;51.460;7.158;2023-03-31T04:46:05;6.00;;;1.57;;
13568;SDS011;6856;51.460;7.158;2023-03-31T04:48:40;3.83;;;1.50;;
13568;SDS011;6856;51.460;7.158;2023-03-31T04:51:15;4.23;;;1.17;;
13568;SDS011;6856;51.460;7.158;2023-03-31T04:53:51;3.70;;;1.70;;
13568;SDS011;6856;51.460;7.158;2023-03-31T04:56:24;4.50;;;1.57;;
13568;SDS011;6856;51.460;7.158;2023-03-31T04:58:58;3.87;;;1.57;;
13568;SDS011;6856;51.460;7.158;2023-03-31T05:01:34;2.73;;;1.20;;
13568;SDS011;6856;51.460;7.158;2023-03-31T05:04:08;3.47;;;1.30;;
13568;SDS011;6856;51.460;7.158;2023-03-31T05:06:43;2.73;;;1.27;;
13568;SDS011;6856;51.460;7.158;2023-03-31T05:09:17;3.30;;;1.13;;
13568;SDS011;6856;51.460;7.158;2023-03-31T05:11:51;3.87;;;1.30;;
13568;SDS011;6856;51.460;7.158;2023-03-31T05:14:25;2.30;;;1.20;;
13568;SDS011;6856;51.460;7.158;2023-03-31T05:16:59;4.13;;;0.90;;
13568;SDS011;6856;51.460;7.158;2023-03-31T05:19:33;3.33;;;1.10;;
13568;SDS011;6856;51.460;7.158;2023-03-31T05:22:10;2.97;;;1.10;;
13568;SDS011;6856;51.460;7.158;2023-03-31T05:24:44;3.83;;;1.10;;
13568;SDS011;6856;51.460;7.158;2023-03-31T05:27:18;5.07;;;1.23;;
13568;SDS011;6856;51.460;7.158;2023-03-31T05:29:52;3.07;;;1.30;;
13568;SDS011;6856;51.460;7.158;2023-03-31T05:32:26;2.40;;;1.00;;
13568;SDS011;6856;51.460;7.158;2023-03-31T05:35:01;3.90;;;1.23;;
13568;SDS011;6856;51.460;7.158;2023-03-31T05:37:36;2.33;;;1.00;;
13568;SDS011;6856;51.460;7.158;2023-03-31T05:40:10;2.87;;;1.17;;
13568;SDS011;6856;51.460;7.158;2023-03-31T05:42:44;2.57;;;1.00;;
13568;SDS011;6856;51.460;7.158;2023-03-31T05:45:18;3.97;;;1.37;;
13568;SDS011;6856;51.460;7.158;2023-03-31T05:47:52;4.03;;;1.20;;
13568;SDS011;6856;51.460;7.158;2023-03-31T05:50:26;3.70;;;1.10;;
13568;SDS011;6856;51.460;7.158;2023-03-31T05:53:01;3.63;;;0.87;;
13568;SDS011;6856;51.460;7.158;2023-03-31T05:55:35;3.13;;;0.90;;
13568;SDS011;6856;51.460;7.158;2023-03-31T05:58:10;3.70;;;1.20;;
13568;SDS011;6856;51.460;7.158;2023-03-31T06:00:44;4.17;;;1.30;;
13568;SDS011;6856;51.460;7.158;2023-03-31T06:03:18;2.93;;;1.20;;
13568;SDS011;6856;51.460;7.158;2023-03-31T06:05:52;1.90;;;0.90;;
13568;SDS011;6856;51.460;7.158;2023-03-31T06:08:27;3.10;;;1.00;;
13568;SDS011;6856;51.460;7.158;2023-03-31T06:11:03;3.83;;;1.30;;
13568;SDS011;6856;51.460;7.158;2023-03-31T06:13:38;3.10;;;1.10;;
13568;SDS011;6856;51.460;7.158;2023-03-31T06:16:14;1.07;;;0.90;;
13568;SDS011;6856;51.460;7.158;2023-03-31T06:18:49;2.20;;;1.10;;
13568;SDS011;6856;51.460;7.158;2023-03-31T06:21:23;2.83;;;1.07;;
13568;SDS011;6856;51.460;7.158;2023-03-31T06:24:00;2.00;;;1.03;;
13568;SDS011;6856;51.460;7.158;2023-03-31T06:26:36;2.07;;;0.90;;
13568;SDS011;6856;51.460;7.158;2023-03-31T06:29:09;3.10;;;1.33;;
13568;SDS011;6856;51.460;7.158;2023-03-31T06:31:43;4.87;;;1.33;;
13568;SDS011;6856;51.460;7.158;2023-03-31T06:34:17;3.80;;;1.07;;
13568;SDS011;6856;51.460;7.158;2023-03-31T06:36:52;1.87;;;0.87;;
13568;SDS011;6856;51.460;7.158;2023-03-31T06:39:27;3.03;;;1.33;;
13568;SDS011;6856;51.460;7.158;2023-03-31T06:42:01;2.17;;;1.20;;
13568;SDS011;6856;51.460;7.158;2023-03-31T06:44:35;2.47;;;0.93;;
13568;SDS011;6856;51.460;7.158;2023-03-31T06:47:12;3.97;;;1.00;;
13568;SDS011;6856;51.460;7.158;2023-03-31T06:49:48;3.03;;;1.13;;
13568;SDS011;6856;51.460;7.158;2023-03-31T06:52:22;1.57;;;0.90;;
13568;SDS011;6856;51.460;7.158;2023-03-31T06:54:58;2.50;;;1.00;;
13568;SDS011;6856;51.460;7.158;2023-03-31T06:57:31;2.27;;;0.90;;
13568;SDS011;6856;51.460;7.158;2023-03-31T07:00:07;4.73;;;1.30;;
13568;SDS011;6856;51.460;7.158;2023-03-31T07:02:42;2.73;;;1.00;;
13568;SDS011;6856;51.460;7.158;2023-03-31T07:05:16;3.73;;;1.00;;
13568;SDS011;6856;51.460;7.158;2023-03-31T07:07:50;1.80;;;0.80;;
13568;SDS011;6856;51.460;7.158;2023-03-31T07:10:26;3.10;;;0.93;;
13568;SDS011;6856;51.460;7.158;2023-03-31T07:13:02;2.83;;;1.20;;
13568;SDS011;6856;51.460;7.158;2023-03-31T07:15:36;1.73;;;1.00;;
13568;SDS011;6856;51.460;7.158;2023-03-31T07:18:10;2.47;;;1.10;;
13568;SDS011;6856;51.460;7.158;2023-03-31T07:20:47;2.33;;;0.90;;
13568;SDS011;6856;51.460;7.158;2023-03-31T07:23:22;2.27;;;0.80;;
13568;SDS011;6856;51.460;7.158;2023-03-31T07:25:57;4.17;;;1.10;;
13568;SDS011;6856;51.460;7.158;2023-03-31T07:28:33;3.50;;;1.30;;
13568;SDS011;6856;51.460;7.158;2023-03-31T07:31:10;2.77;;;0.90;;
13568;SDS011;6856;51.460;7.158;2023-03-31T07:33:45;1.80;;;1.10;;
13568;SDS011;6856;51.460;7.158;2023-03-31T07:36:18;1.93;;;0.90;;
13568;SDS011;6856;51.460;7.158;2023-03-31T07:38:52;1.90;;;0.80;;
13568;SDS011;6856;51.460;7.158;2023-03-31T07:41:28;2.80;;;0.80;;
13568;SDS011;6856;51.460;7.158;2023-03-31T07:44:01;2.70;;;0.90;;
13568;SDS011;6856;51.460;7.158;2023-03-31T07:46:36;2.73;;;1.17;;
13568;SDS011;6856;51.460;7.158;2023-03-31T07:49:10;1.20;;;0.67;;
13568;SDS011;6856;51.460;7.158;2023-03-31T07:51:46;1.67;;;0.90;;
13568;SDS011;6856;51.460;7.158;2023-03-31T07:54:23;2.47;;;1.00;;
13568;SDS011;6856;51.460;7.158;2023-03-31T07:57:00;0.83;;;0.60;;
13568;SDS011;6856;51.460;7.158;2023-03-31T07:59:36;1.20;;;0.90;;
13568;SDS011;6856;51.460;7.158;2023-03-31T08:02:12;3.03;;;0.60;;
13568;SDS011;6856;51.460;7.158;2023-03-31T08:04:49;1.77;;;0.80;;
13568;SDS011;6856;51.460;7.158;2023-03-31T08:07:23;2.10;;;0.70;;
13568;SDS011;6856;51.460;7.158;2023-03-31T08:10:02;2.47;;;0.87;;
13568;SDS011;6856;51.460;7.158;2023-03-31T08:12:40;2.10;;;0.70;;
13568;SDS011;6856;51.460;7.158;2023-03-31T08:15:14;2.00;;;0.80;;
13568;SDS011;6856;51.460;7.158;2023-03-31T08:17:48;2.07;;;1.40;;
13568;SDS011;6856;51.460;7.158;2023-03-31T08:20:22;2.60;;;1.27;;
13568;SDS011;6856;51.460;7.158;2023-03-31T08:22:56;2.67;;;1.20;;
13568;SDS011;6856;51.460;7.158;2023-03-31T08:25:30;2.90;;;1.10;;
13568;SDS011;6856;51.460;7.158;2023-03-31T08:28:05;1.93;;;1.10;;
13568;SDS011;6856;51.460;7.158;2023-03-31T08:30:41;2.63;;;1.00;;
13568;SDS011;6856;51.460;7.158;2023-03-31T08:33:15;1.70;;;0.87;;
13568;SDS011;6856;51.460;7.158;2023-03-31T08:35:50;1.37;;;0.67;;
13568;SDS011;6856;51.460;7.158;2023-03-31T08:38:24;2.40;;;0.80;;
13568;SDS011;6856;51.460;7.158;2023-03-31T08:40:58;1.27;;;0.87;;
13568;SDS011;6856;51.460;7.158;2023-03-31T08:43:35;0.73;;;0.70;;
13568;SDS011;6856;51.460;7.158;2023-03-31T08:46:17;2.00;;;1.10;;
13568;SDS011;6856;51.460;7.158;2023-03-31T08:48:51;1.73;;;0.90;;
13568;SDS011;6856;51.460;7.158;2023-03-31T08:51:29;1.63;;;1.07;;
13568;SDS011;6856;51.460;7.158;2023-03-31T08:54:10;1.53;;;1.03;;
13568;SDS011;6856;51.460;7.158;2023-03-31T08:56:51;2.97;;;1.00;;
13568;SDS011;6856;51.460;7.158;2023-03-31T08:59:28;1.83;;;0.83;;
13568;SDS011;6856;51.460;7.158;2023-03-31T09:02:08;1.17;;;0.80;;
13568;SDS011;6856;51.460;7.158;2023-03-31T09:05:03;1.07;;;0.67;;
13568;SDS011;6856;51.460;7.158;2023-03-31T09:08:33;2.10;;;1.20;;
13568;SDS011;6856;51.460;7.158;2023-03-31T09:11:12;2.57;;;1.20;;
13568;SDS011;6856;51.460;7.158;2023-03-31T09:14:09;2.87;;;1.00;;
13568;SDS011;6856;51.460;7.158;2023-03-31T09:17:06;3.67;;;1.20;;
13568;SDS011;6856;51.460;7.158;2023-03-31T09:19:51;2.20;;;0.97;;
13568;SDS011;6856;51.460;7.158;2023-03-31T09:22:30;1.93;;;0.90;;
13568;SDS011;6856;51.460;7.158;2023-03-31T09:25:09;2.03;;;1.07;;
13568;SDS011;6856;51.460;7.158;2023-03-31T09:27:49;1.57;;;0.97;;
13568;SDS011;6856;51.460;7.158;2023-03-31T09:30:30;1.70;;;0.80;;
13568;SDS011;6856;51.460;7.158;2023-03-31T09:33:09;2.00;;;1.13;;
13568;SDS011;6856;51.460;7.158;2023-03-31T09:35:48;2.03;;;0.90;;
13568;SDS011;6856;51.460;7.158;2023-03-31T09:38:22;3.80;;;0.90;;
13568;SDS011;6856;51.460;7.158;2023-03-31T09:41:00;1.93;;;1.10;;
13568;SDS011;6856;51.460;7.158;2023-03-31T09:43:38;3.73;;;1.30;;
13568;SDS011;6856;51.460;7.158;2023-03-31T09:46:16;2.00;;;1.07;;
13568;SDS011;6856;51.460;7.158;2023-03-31T09:49:03;1.17;;;0.77;;
13568;SDS011;6856;51.460;7.158;2023-03-31T09:51:45;2.53;;;1.07;;
13568;SDS011;6856;51.460;7.158;2023-03-31T09:54:27;4.10;;;1.30;;
13568;SDS011;6856;51.460;7.158;2023-03-31T09:57:12;3.80;;;1.00;;
13568;SDS011;6856;51.460;7.158;2023-03-31T10:00:01;3.87;;;1.13;;
13568;SDS011;6856;51.460;7.158;2023-03-31T10:02:49;3.20;;;1.10;;
13568;SDS011;6856;51.460;7.158;2023-03-31T10:05:26;3.23;;;1.00;;
13568;SDS011;6856;51.460;7.158;2023-03-31T10:08:12;1.87;;;0.90;;
13568;SDS011;6856;51.460;7.158;2023-03-31T10:11:05;7.10;;;1.33;;
13568;SDS011;6856;51.460;7.158;2023-03-31T10:13:44;2.67;;;1.37;;
13568;SDS011;6856;51.460;7.158;2023-03-31T10:16:21;2.67;;;1.13;;
13568;SDS011;6856;51.460;7.158;2023-03-31T10:19:12;4.20;;;1.57;;
13568;SDS011;6856;51.460;7.158;2023-03-31T10:21:56;4.93;;;1.70;;
13568;SDS011;6856;51.460;7.158;2023-03-31T10:24:35;4.50;;;1.77;;
13568;SDS011;6856;51.460;7.158;2023-03-31T10:27:15;5.33;;;1.50;;
13568;SDS011;6856;51.460;7.158;2023-03-31T10:29:55;3.17;;;1.30;;
13568;SDS011;6856;51.460;7.158;2023-03-31T10:32:32;3.77;;;1.53;;
13568;SDS011;6856;51.460;7.158;2023-03-31T10:35:19;6.37;;;1.90;;
13568;SDS011;6856;51.460;7.158;2023-03-31T10:38:01;4.87;;;1.63;;
13568;SDS011;6856;51.460;7.158;2023-03-31T10:40:39;3.30;;;1.40;;
13568;SDS011;6856;51.460;7.158;2023-03-31T10:43:26;3.67;;;1.27;;
13568;SDS011;6856;51.460;7.158;2023-03-31T10:46:02;3.57;;;1.50;;
13568;SDS011;6856;51.460;7.158;2023-03-31T10:48:38;2.97;;;1.10;;
13568;SDS011;6856;51.460;7.158;2023-03-31T10:51:17;3.80;;;1.37;;
13568;SDS011;6856;51.460;7.158;2023-03-31T10:53:53;5.33;;;1.27;;
13568;SDS011;6856;51.460;7.158;2023-03-31T10:56:35;4.23;;;1.40;;
13568;SDS011;6856;51.460;7.158;2023-03-31T10:59:21;5.10;;;1.60;;
13568;SDS011;6856;51.460;7.158;2023-03-31T11:02:15;7.90;;;1.87;;
13568;SDS011;6856;51.460;7.158;2023-03-31T11:05:21;6.00;;;1.77;;
13568;SDS011;6856;51.460;7.158;2023-03-31T11:08:09;4.83;;;1.57;;
13568;SDS011;6856;51.460;7.158;2023-03-31T11:11:16;4.57;;;1.70;;
13568;SDS011;6856;51.460;7.158;2023-03-31T11:14:07;5.47;;;1.80;;
13568;SDS011;6856;51.460;7.158;2023-03-31T11:16:51;6.73;;;1.73;;
13568;SDS011;6856;51.460;7.158;2023-03-31T11:19:37;5.07;;;1.77;;
13568;SDS011;6856;51.460;7.158;2023-03-31T11:22:24;4.87;;;1.93;;
13568;SDS011;6856;51.460;7.158;2023-03-31T11:25:11;2.70;;;1.20;;
13568;SDS011;6856;51.460;7.158;2023-03-31T11:31:12;2.60;;;1.17;;
13568;SDS011;6856;51.460;7.158;2023-03-31T11:34:15;2.50;;;1.00;;
13568;SDS011;6856;51.460;7.158;2023-03-31T11:37:21;4.13;;;1.20;;
13568;SDS011;6856;51.460;7.158;2023-03-31T11:40:20;4.73;;;1.43;;
13568;SDS011;6856;51.460;7.158;2023-03-31T11:43:09;3.73;;;1.27;;
13568;SDS011;6856;51.460;7.158;2023-03-31T11:45:54;4.10;;;1.20;;
13568;SDS011;6856;51.460;7.158;2023-03-31T11:48:37;2.30;;;1.00;;
13568;SDS011;6856;51.460;7.158;2023-03-31T11:51:17;2.53;;;1.03;;
13568;SDS011;6856;51.460;7.158;2023-03-31T11:53:57;2.87;;;1.47;;
13568;SDS011;6856;51.460;7.158;2023-03-31T11:56:38;4.83;;;1.37;;
13568;SDS011;6856;51.460;7.158;2023-03-31T11:59:14;5.30;;;1.30;;
13568;SDS011;6856;51.460;7.158;2023-03-31T12:01:51;4.63;;;1.30;;
13568;SDS011;6856;51.460;7.158;2023-03-31T12:04:36;2.50;;;1.10;;
13568;SDS011;6856;51.460;7.158;2023-03-31T12:07:19;1.77;;;0.97;;
13568;SDS011;6856;51.460;7.158;2023-03-31T12:10:02;4.83;;;1.57;;
13568;SDS011;6856;51.460;7.158;2023-03-31T12:12:50;2.80;;;0.90;;
13568;SDS011;6856;51.460;7.158;2023-03-31T12:15:31;2.07;;;0.77;;
13568;SDS011;6856;51.460;7.158;2023-03-31T12:18:12;2.63;;;1.00;;
13568;SDS011;6856;51.460;7.158;2023-03-31T12:20:54;4.10;;;1.40;;
13568;SDS011;6856;51.460;7.158;2023-03-31T12:23:32;2.50;;;1.17;;
13568;SDS011;6856;51.460;7.158;2023-03-31T12:26:16;3.33;;;1.30;;
13568;SDS011;6856;51.460;7.158;2023-03-31T12:29:14;2.37;;;1.23;;
13568;SDS011;6856;51.460;7.158;2023-03-31T12:32:00;2.93;;;1.23;;
13568;SDS011;6856;51.460;7.158;2023-03-31T12:34:43;3.47;;;1.27;;
13568;SDS011;6856;51.460;7.158;2023-03-31T12:37:36;3.30;;;1.23;;
13568;SDS011;6856;51.460;7.158;2023-03-31T12:40:44;6.07;;;1.80;;
13568;SDS011;6856;51.460;7.158;2023-03-31T12:43:42;3.90;;;1.40;;
13568;SDS011;6856;51.460;7.158;2023-03-31T12:46:52;3.47;;;1.20;;
13568;SDS011;6856;51.460;7.158;2023-03-31T12:49:54;3.10;;;1.30;;
13568;SDS011;6856;51.460;7.158;2023-03-31T12:52:39;3.80;;;1.23;;
13568;SDS011;6856;51.460;7.158;2023-03-31T12:55:26;5.83;;;1.67;;
13568;SDS011;6856;51.460;7.158;2023-03-31T13:01:19;6.23;;;1.73;;
13568;SDS011;6856;51.460;7.158;2023-03-31T13:04:08;4.63;;;1.50;;
13568;SDS011;6856;51.460;7.158;2023-03-31T13:06:53;4.70;;;1.70;;
13568;SDS011;6856;51.460;7.158;2023-03-31T13:09:48;5.57;;;1.60;;
13568;SDS011;6856;51.460;7.158;2023-03-31T13:12:25;4.13;;;1.73;;
13568;SDS011;6856;51.460;7.158;2023-03-31T13:15:04;3.90;;;1.43;;
13568;SDS011;6856;51.460;7.158;2023-03-31T13:17:56;4.47;;;1.73;;
13568;SDS011;6856;51.460;7.158;2023-03-31T13:20:35;8.03;;;1.80;;
13568;SDS011;6856;51.460;7.158;2023-03-31T13:23:15;4.43;;;1.90;;
13568;SDS011;6856;51.460;7.158;2023-03-31T13:25:53;4.37;;;1.47;;
13568;SDS011;6856;51.460;7.158;2023-03-31T13:28:31;2.57;;;1.40;;
13568;SDS011;6856;51.460;7.158;2023-03-31T13:31:13;5.57;;;1.87;;
13568;SDS011;6856;51.460;7.158;2023-03-31T13:33:50;5.97;;;1.70;;
13568;SDS011;6856;51.460;7.158;2023-03-31T13:39:45;4.27;;;1.50;;
13568;SDS011;6856;51.460;7.158;2023-03-31T13:42:56;5.00;;;1.70;;
13568;SDS011;6856;51.460;7.158;2023-03-31T13:45:57;3.70;;;1.70;;
13568;SDS011;6856;51.460;7.158;2023-03-31T13:49:19;5.40;;;1.47;;
13568;SDS011;6856;51.460;7.158;2023-03-31T13:52:25;4.73;;;1.57;;
13568;SDS011;6856;51.460;7.158;2023-03-31T13:55:21;6.57;;;1.60;;
13568;SDS011;6856;51.460;7.158;2023-03-31T14:01:57;4.00;;;1.17;;
13568;SDS011;6856;51.460;7.158;2023-03-31T14:05:25;2.03;;;0.93;;
13568;SDS011;6856;51.460;7.158;2023-03-31T14:08:06;2.37;;;1.10;;
13568;SDS011;6856;51.460;7.158;2023-03-31T14:10:45;3.40;;;1.33;;
13568;SDS011;6856;51.460;7.158;2023-03-31T14:13:18;5.37;;;1.17;;
13568;SDS011;6856;51.460;7.158;2023-03-31T14:15:57;6.20;;;1.47;;
13568;SDS011;6856;51.460;7.158;2023-03-31T14:18:33;2.20;;;1.10;;
13568;SDS011;6856;51.460;7.158;2023-03-31T14:21:16;4.07;;;1.47;;
13568;SDS011;6856;51.460;7.158;2023-03-31T14:24:04;3.53;;;1.30;;
13568;SDS011;6856;51.460;7.158;2023-03-31T14:26:52;3.63;;;1.30;;
13568;SDS011;6856;51.460;7.158;2023-03-31T14:29:37;4.97;;;1.13;;
13568;SDS011;6856;51.460;7.158;2023-03-31T14:32:26;3.87;;;1.50;;
13568;SDS011;6856;51.460;7.158;2023-03-31T14:35:18;3.87;;;1.13;;
13568;SDS011;6856;51.460;7.158;2023-03-31T14:38:04;6.63;;;1.77;;
13568;SDS011;6856;51.460;7.158;2023-03-31T14:40:48;4.40;;;1.37;;
13568;SDS011;6856;51.460;7.158;2023-03-31T14:43:27;4.37;;;1.10;;
13568;SDS011;6856;51.460;7.158;2023-03-31T14:46:06;4.07;;;1.37;;
13568;SDS011;6856;51.460;7.158;2023-03-31T14:48:42;4.63;;;1.13;;
13568;SDS011;6856;51.460;7.158;2023-03-31T14:51:22;2.80;;;1.17;;
13568;SDS011;6856;51.460;7.158;2023-03-31T14:54:00;2.63;;;0.90;;
13568;SDS011;6856;51.460;7.158;2023-03-31T14:56:37;3.83;;;1.37;;
13568;SDS011;6856;51.460;7.158;2023-03-31T14:59:12;4.27;;;1.00;;
13568;SDS011;6856;51.460;7.158;2023-03-31T15:01:55;2.50;;;0.97;;
13568;SDS011;6856;51.460;7.158;2023-03-31T15:04:34;2.73;;;1.00;;
13568;SDS011;6856;51.460;7.158;2023-03-31T15:07:17;1.77;;;0.83;;
13568;SDS011;6856;51.460;7.158;2023-03-31T15:09:51;2.50;;;1.20;;
13568;SDS011;6856;51.460;7.158;2023-03-31T15:12:26;3.53;;;1.30;;
13568;SDS011;6856;51.460;7.158;2023-03-31T15:15:02;3.00;;;1.00;;
13568;SDS011;6856;51.460;7.158;2023-03-31T15:17:40;3.13;;;0.97;;
13568;SDS011;6856;51.460;7.158;2023-03-31T15:23:18;3.43;;;1.40;;
13568;SDS011;6856;51.460;7.158;2023-03-31T15:25:56;2.90;;;1.00;;
13568;SDS011;6856;51.460;7.158;2023-03-31T15:28:38;3.37;;;1.10;;
13568;SDS011;6856;51.460;7.158;2023-03-31T15:31:21;2.37;;;0.80;;
13568;SDS011;6856;51.460;7.158;2023-03-31T15:33:57;2.93;;;1.10;;
13568;SDS011;6856;51.460;7.158;2023-03-31T15:36:31;3.20;;;1.40;;
13568;SDS011;6856;51.460;7.158;2023-03-31T15:39:05;2.73;;;1.23;;
13568;SDS011;6856;51.460;7.158;2023-03-31T15:41:39;4.43;;;1.77;;
13568;SDS011;6856;51.460;7.158;2023-03-31T15:44:29;3.20;;;1.20;;
13568;SDS011;6856;51.460;7.158;2023-03-31T15:47:17;2.97;;;1.13;;
13568;SDS011;6856;51.460;7.158;2023-03-31T15:49:56;2.03;;;1.17;;
13568;SDS011;6856;51.460;7.158;2023-03-31T15:56:58;2.80;;;1.10;;
13568;SDS011;6856;51.460;7.158;2023-03-31T15:59:44;3.83;;;1.50;;
13568;SDS011;6856;51.460;7.158;2023-03-31T16:02:29;2.97;;;1.40;;
13568;SDS011;6856;51.460;7.158;2023-03-31T16:05:27;2.63;;;1.40;;
13568;SDS011;6856;51.460;7.158;2023-03-31T16:08:25;2.77;;;1.20;;
13568;SDS011;6856;51.460;7.158;2023-03-31T16:11:04;3.20;;;0.97;;
13568;SDS011;6856;51.460;7.158;2023-03-31T16:13:44;4.40;;;2.00;;
13568;SDS011;6856;51.460;7.158;2023-03-31T16:16:25;3.17;;;1.40;;
13568;SDS011;6856;51.460;7.158;2023-03-31T16:19:02;3.10;;;1.40;;
13568;SDS011;6856;51.460;7.158;2023-03-31T16:21:41;4.93;;;1.43;;
13568;SDS011;6856;51.460;7.158;2023-03-31T16:24:20;2.47;;;1.10;;
13568;SDS011;6856;51.460;7.158;2023-03-31T16:27:04;1.77;;;1.20;;
13568;SDS011;6856;51.460;7.158;2023-03-31T16:29:39;3.30;;;1.13;;
13568;SDS011;6856;51.460;7.158;2023-03-31T16:32:15;4.53;;;1.13;;
13568;SDS011;6856;51.460;7.158;2023-03-31T16:34:52;1.90;;;0.93;;
13568;SDS011;6856;51.460;7.158;2023-03-31T16:37:28;1.67;;;0.90;;
13568;SDS011;6856;51.460;7.158;2023-03-31T16:40:03;3.87;;;1.07;;
13568;SDS011;6856;51.460;7.158;2023-03-31T16:42:38;2.13;;;0.90;;
13568;SDS011;6856;51.460;7.158;2023-03-31T16:45:12;2.57;;;1.10;;
13568;SDS011;6856;51.460;7.158;2023-03-31T16:47:48;1.77;;;1.00;;
13568;SDS011;6856;51.460;7.158;2023-03-31T16:50:25;3.07;;;1.20;;
13568;SDS011;6856;51.460;7.158;2023-03-31T16:52:58;1.43;;;0.87;;
13568;SDS011;6856;51.460;7.158;2023-03-31T16:55:33;2.20;;;1.03;;